createdAt,value
2022-10-17T00:01:25.472Z,101682.19
2022-10-17T00:04:27.692Z,101683.28
2022-10-17T00:07:30.918Z,101686.00
2022-10-17T00:10:33.332Z,101686.78
2022-10-17T00:13:36.003Z,101687.22
2022-10-17T00:16:38.189Z,101695.31
2022-10-17T00:19:40.368Z,101684.53
2022-10-17T00:22:42.726Z,101690.72
2022-10-17T00:25:44.898Z,101685.78
2022-10-17T00:28:48.763Z,101686.56
2022-10-17T00:35:02.443Z,101687.81
2022-10-17T00:38:04.608Z,101687.34
2022-10-17T00:41:08.064Z,101693.69
2022-10-17T00:44:31.903Z,101684.47
2022-10-17T00:47:35.953Z,101691.44
2022-10-17T00:50:41.731Z,101690.34
2022-10-17T00:53:44.326Z,101681.91
2022-10-17T00:56:47.824Z,101690.44
2022-10-17T00:59:53.170Z,101686.63
2022-10-17T01:02:55.486Z,101681.72
2022-10-17T01:05:57.738Z,101677.44
2022-10-17T01:09:00.174Z,101682.94
2022-10-17T01:12:02.301Z,101682.28
2022-10-17T01:15:47.572Z,101685.44
2022-10-17T01:19:13.686Z,101690.47
2022-10-17T01:22:22.215Z,101679.34
2022-10-17T01:25:46.473Z,101678.25
2022-10-17T01:29:00.519Z,101677.91
2022-10-17T01:32:17.810Z,101677.16
2022-10-17T01:36:06.948Z,101682.19
2022-10-17T01:39:30.123Z,101679.50
2022-10-17T01:42:48.724Z,101679.50
2022-10-17T01:46:00.653Z,101691.06
2022-10-17T01:49:05.857Z,101689.47
2022-10-17T01:52:19.869Z,101680.59
2022-10-17T01:55:29.306Z,101689.47
2022-10-17T01:58:44.180Z,101698.69
2022-10-17T02:01:52.376Z,101690.47
2022-10-17T02:04:56.955Z,101691.72
2022-10-17T02:07:59.179Z,101695.84
2022-10-17T02:11:07.840Z,101693.94
2022-10-17T02:14:42.016Z,101691.56
2022-10-17T02:18:21.744Z,101683.06
2022-10-17T02:22:01.838Z,101691.47
2022-10-17T02:25:44.495Z,101698.75
2022-10-17T02:29:00.613Z,101701.00
2022-10-17T02:32:12.339Z,101701.34
2022-10-17T02:35:15.991Z,101705.94
2022-10-17T02:38:18.872Z,101706.25
2022-10-17T02:41:24.387Z,101713.56
2022-10-17T02:44:29.217Z,101713.88
2022-10-17T02:48:03.430Z,101721.94
2022-10-17T02:51:28.784Z,101716.91
2022-10-17T02:54:45.797Z,101711.88
2022-10-17T02:57:56.043Z,101721.03
2022-10-17T03:00:59.443Z,101720.25
2022-10-17T03:04:11.079Z,101719.81
2022-10-17T03:07:13.589Z,101723.28
2022-10-17T03:10:16.714Z,101723.59
2022-10-17T03:13:19.333Z,101727.09
2022-10-17T03:16:21.911Z,101730.88
2022-10-17T03:19:24.292Z,101730.88
2022-10-17T03:22:28.511Z,101738.16
2022-10-17T03:25:32.742Z,101740.06
2022-10-17T03:28:36.111Z,101737.72
2022-10-17T03:31:38.565Z,101742.28
2022-10-17T03:34:42.101Z,101745.00
2022-10-17T03:37:45.364Z,101754.16
2022-10-17T03:40:55.126Z,101755.31
2022-10-17T03:43:57.562Z,101763.69
2022-10-17T03:47:00.597Z,101762.44
2022-10-17T03:50:03.451Z,101764.81
2022-10-17T03:53:08.840Z,101772.09
2022-10-17T03:56:13.797Z,101766.25
2022-10-17T03:59:16.934Z,101762.31
2022-10-17T04:02:26.151Z,101766.56
2022-10-17T04:05:28.344Z,101774.19
2022-10-17T04:08:32.056Z,101779.91
2022-10-17T04:11:47.907Z,101783.41
2022-10-17T04:14:50.121Z,101775.53
2022-10-17T04:17:52.817Z,101782.59
2022-10-17T04:20:55.005Z,101779.91
2022-10-17T04:23:59.789Z,101779.13
2022-10-17T04:27:31.071Z,101779.13
2022-10-17T04:30:33.654Z,101784.06
2022-10-17T04:33:35.971Z,101784.84
2022-10-17T04:36:38.547Z,101789.44
2022-10-17T04:39:40.742Z,101796.72
2022-10-17T04:42:42.912Z,101794.00
2022-10-17T04:45:47.663Z,101798.59
2022-10-17T04:48:50.006Z,101795.13
2022-10-17T04:51:52.312Z,101802.44
2022-10-17T04:54:58.704Z,101808.91
2022-10-17T04:58:00.896Z,101808.13
2022-10-17T05:01:06.331Z,101811.94
2022-10-17T05:04:08.798Z,101811.59
2022-10-17T05:07:11.125Z,101810.03
2022-10-17T05:10:29.026Z,101810.03
2022-10-17T05:13:32.919Z,101813.84
2022-10-17T05:16:35.929Z,101821.13
2022-10-17T05:19:38.186Z,101827.28
2022-10-17T05:22:42.352Z,101825.69
2022-10-17T05:25:46.413Z,101837.25
2022-10-17T05:28:48.675Z,101841.06
2022-10-17T05:31:53.004Z,101849.91
2022-10-17T05:34:55.613Z,101853.41
2022-10-17T05:38:00.108Z,101857.34
2022-10-17T05:41:04.702Z,101852.09
2022-10-17T05:44:07.486Z,101850.47
2022-10-17T05:47:15.471Z,101858.03
2022-10-17T05:50:17.869Z,101866.72
2022-10-17T05:53:40.940Z,101871.22
2022-10-17T05:56:52.455Z,101875.31
2022-10-17T05:59:57.459Z,101876.38
2022-10-17T06:02:59.675Z,101892.09
2022-10-17T06:06:10.141Z,101883.63
2022-10-17T06:09:15.015Z,101893.53
2022-10-17T06:12:21.288Z,101891.00
2022-10-17T06:15:24.183Z,101898.06
2022-10-17T06:18:33.043Z,101895.63
2022-10-17T06:21:38.633Z,101913.31
2022-10-17T06:24:46.249Z,101910.97
2022-10-17T06:27:49.871Z,101919.66
2022-10-17T06:30:52.134Z,101922.47
2022-10-17T06:33:54.655Z,101918.78
2022-10-17T06:40:07.944Z,101935.19
2022-10-17T06:43:10.417Z,101928.44
2022-10-17T06:46:30.673Z,101939.38
2022-10-17T06:49:38.598Z,101942.97
2022-10-17T06:52:58.670Z,101949.94
2022-10-17T06:56:19.427Z,101951.06
2022-10-17T06:59:29.046Z,101948.25
2022-10-17T07:02:39.215Z,101949.59
2022-10-17T07:05:41.445Z,101955.13
2022-10-17T07:08:45.509Z,101964.13
2022-10-17T07:11:50.510Z,101960.31
2022-10-17T07:14:53.925Z,101962.00
2022-10-17T07:17:57.516Z,101973.41
2022-10-17T07:21:01.086Z,101967.31
2022-10-17T07:24:03.712Z,101967.09
2022-10-17T07:27:06.180Z,101969.91
2022-10-17T07:30:10.386Z,101974.63
2022-10-17T07:33:15.449Z,101967.44
2022-10-17T07:36:18.434Z,101972.50
2022-10-17T07:39:20.729Z,101978.69
2022-10-17T07:42:23.342Z,101974.53
2022-10-17T07:45:27.690Z,101978.03
2022-10-17T07:48:30.654Z,101978.81
2022-10-17T07:51:33.601Z,101974.53
2022-10-17T07:54:35.797Z,101978.03
2022-10-17T07:57:38.022Z,101981.16
2022-10-17T08:00:40.652Z,101980.38
2022-10-17T08:03:48.757Z,101979.25
2022-10-17T08:06:56.398Z,101987.00
2022-10-17T08:10:03.230Z,101994.75
2022-10-17T08:13:07.650Z,101992.53
2022-10-17T08:16:16.550Z,101995.22
2022-10-17T08:19:18.810Z,101989.50
2022-10-17T08:22:21.024Z,101992.41
2022-10-17T08:25:23.895Z,101994.88
2022-10-17T08:28:26.232Z,101989.63
2022-10-17T08:31:28.848Z,101993.44
2022-10-17T08:34:31.012Z,101994.00
2022-10-17T08:37:33.537Z,101991.06
2022-10-17T08:40:36.482Z,101989.47
2022-10-17T08:44:22.075Z,101998.59
2022-10-17T08:47:34.009Z,101994.88
2022-10-17T08:50:45.733Z,101992.97
2022-10-17T08:53:54.159Z,101996.09
2022-10-17T08:56:57.630Z,101981.00
2022-10-17T08:59:59.923Z,101995.66
2022-10-17T09:03:32.162Z,101982.84
2022-10-17T09:07:02.833Z,101992.84
2022-10-17T09:10:26.575Z,101988.47
2022-10-17T09:13:34.706Z,101983.28
2022-10-17T09:17:07.438Z,101991.41
2022-10-17T09:20:25.841Z,101984.88
2022-10-17T09:23:34.883Z,101987.91
2022-10-17T09:26:40.482Z,101987.13
2022-10-17T09:29:48.776Z,101974.66
2022-10-17T09:32:51.372Z,101987.03
2022-10-17T09:35:54.772Z,101983.44
2022-10-17T09:38:59.765Z,101980.28
2022-10-17T09:42:03.180Z,101981.41
2022-10-17T09:45:11.245Z,101975.56
2022-10-17T09:48:25.085Z,101982.53
2022-10-17T09:51:27.677Z,101973.16
2022-10-17T09:54:53.245Z,101971.59
2022-10-17T09:57:58.240Z,101979.25
2022-10-17T10:01:26.132Z,101971.47
2022-10-17T10:04:30.447Z,101976.34
2022-10-17T10:07:36.613Z,101971.72
2022-10-17T10:10:43.022Z,101963.28
2022-10-17T10:13:47.822Z,101967.00
2022-10-17T10:16:53.673Z,101961.47
2022-10-17T10:19:56.271Z,101965.53
2022-10-17T10:23:17.720Z,101963.63
2022-10-17T10:26:29.506Z,101965.19
2022-10-17T10:29:41.364Z,101962.28
2022-10-17T10:32:47.874Z,101958.13
2022-10-17T10:35:57.630Z,101950.25
2022-10-17T10:39:02.458Z,101948.09
2022-10-17T10:42:18.599Z,101952.81
2022-10-17T10:45:43.346Z,101953.16
2022-10-17T10:48:58.436Z,101943.16
2022-10-17T10:52:03.572Z,101946.53
2022-10-17T10:55:23.853Z,101940.00
2022-10-17T10:58:53.774Z,101942.94
2022-10-17T11:02:20.867Z,101946.38
2022-10-17T11:05:28.875Z,101938.72
2022-10-17T11:09:04.108Z,101941.06
2022-10-17T11:12:13.204Z,101941.47
2022-10-17T11:15:18.628Z,101936.31
2022-10-17T11:18:30.080Z,101933.72
2022-10-17T11:21:46.892Z,101930.31
2022-10-17T11:24:56.894Z,101927.34
2022-10-17T11:28:03.785Z,101924.91
2022-10-17T11:31:13.475Z,101916.50
2022-10-17T11:34:20.719Z,101920.00
2022-10-17T11:37:40.253Z,101915.41
2022-10-17T11:40:49.600Z,101917.00
2022-10-17T11:43:59.651Z,101914.03
2022-10-17T11:47:28.237Z,101911.91
2022-10-17T11:54:15.989Z,101899.44
2022-10-17T11:57:34.827Z,101905.72
2022-10-17T12:00:48.875Z,101903.47
2022-10-17T12:04:30.797Z,101900.13
2022-10-17T12:07:48.669Z,101896.84
2022-10-17T12:11:01.200Z,101900.34
2022-10-17T12:14:23.813Z,101899.22
2022-10-17T12:17:30.070Z,101890.56
2022-10-17T12:20:35.528Z,101887.72
2022-10-17T12:23:39.014Z,101883.34
2022-10-17T12:26:41.251Z,101885.03
2022-10-17T12:29:43.516Z,101883.25
2022-10-17T12:33:07.836Z,101876.06
2022-10-17T12:36:22.601Z,101878.88
2022-10-17T12:39:24.702Z,101866.09
2022-10-17T12:42:31.874Z,101877.19
2022-10-17T12:45:51.401Z,101870.91
2022-10-17T12:49:01.522Z,101865.50
2022-10-17T12:52:20.869Z,101865.94
2022-10-17T12:55:26.626Z,101859.66
2022-10-17T12:58:30.705Z,101863.03
2022-10-17T13:01:36.763Z,101861.56
2022-10-17T13:04:39.070Z,101863.59
2022-10-17T13:07:44.109Z,101859.44
2022-10-17T13:10:51.598Z,101861.00
2022-10-17T13:13:58.260Z,101859.44
2022-10-17T13:17:05.513Z,101857.88
2022-10-17T13:20:24.530Z,101852.81
2022-10-17T13:23:34.769Z,101851.69
2022-10-17T13:26:36.934Z,101859.00
2022-10-17T13:29:44.388Z,101847.09
2022-10-17T13:32:46.575Z,101851.91
2022-10-17T13:36:00.113Z,101846.50
2022-10-17T13:39:16.939Z,101849.69
2022-10-17T13:42:39.378Z,101851.22
2022-10-17T13:45:46.996Z,101837.22
2022-10-17T13:48:49.649Z,101839.31
2022-10-17T13:51:54.080Z,101845.50
2022-10-17T13:55:08.174Z,101841.22
2022-10-17T13:58:17.522Z,101844.09
2022-10-17T14:01:21.127Z,101838.25
2022-10-17T14:04:23.331Z,101834.56
2022-10-17T14:08:11.325Z,101833.31
2022-10-17T14:11:22.732Z,101832.97
2022-10-17T14:14:26.143Z,101835.03
2022-10-17T14:17:30.089Z,101828.84
2022-10-17T14:21:30.406Z,101826.03
2022-10-17T14:24:14.302Z,101822.75
2022-10-17T14:27:39.695Z,101827.34
2022-10-17T14:30:56.903Z,101823.53
2022-10-17T14:34:01.752Z,101825.78
2022-10-17T14:37:10.549Z,101828.13
2022-10-17T14:40:17.860Z,101825.00
2022-10-17T14:43:23.714Z,101823.09
2022-10-17T14:46:26.353Z,101815.34
2022-10-17T14:49:34.655Z,101818.03
2022-10-17T14:52:38.858Z,101825.66
2022-10-17T14:55:55.759Z,101820.16
2022-10-17T14:58:57.988Z,101815.88
2022-10-17T15:02:00.145Z,101815.44
2022-10-17T15:05:02.284Z,101822.28
2022-10-17T15:08:12.881Z,101821.03
2022-10-17T15:11:15.023Z,101827.88
2022-10-17T15:14:17.206Z,101824.38
2022-10-17T15:17:23.384Z,101833.59
2022-10-17T15:20:27.981Z,101829.31
2022-10-17T15:23:30.116Z,101828.06
2022-10-17T15:26:34.096Z,101831.91
2022-10-17T15:29:36.298Z,101830.31
2022-10-17T15:32:38.479Z,101837.59
2022-10-17T15:35:42.617Z,101838.25
2022-10-17T15:38:44.785Z,101830.84
2022-10-17T15:41:48.082Z,101839.38
2022-10-17T15:44:50.456Z,101841.47
2022-10-17T15:47:55.838Z,101847.66
2022-10-17T15:50:59.099Z,101849.91
2022-10-17T15:54:02.194Z,101844.06
2022-10-17T15:57:04.498Z,101842.03
2022-10-17T16:00:16.557Z,101854.69
2022-10-17T16:03:19.076Z,101856.13
2022-10-17T16:06:22.818Z,101861.41
2022-10-17T16:09:25.095Z,101855.09
2022-10-17T16:12:29.030Z,101865.53
2022-10-17T16:15:31.239Z,101860.81
2022-10-17T16:18:33.386Z,101865.41
2022-10-17T16:21:38.033Z,101863.81
2022-10-17T16:24:40.234Z,101861.47
2022-10-17T16:27:42.503Z,101867.19
2022-10-17T16:30:46.125Z,101864.78
2022-10-17T16:33:50.993Z,101870.50
2022-10-17T16:36:53.154Z,101874.31
2022-10-17T16:39:55.309Z,101870.34
2022-10-17T16:42:57.491Z,101875.72
2022-10-17T16:45:59.647Z,101880.34
2022-10-17T16:49:04.145Z,101886.03
2022-10-17T16:52:06.405Z,101883.69
2022-10-17T16:55:09.882Z,101885.91
2022-10-17T16:58:12.068Z,101885.91
2022-10-17T17:01:20.005Z,101890.84
2022-10-17T17:04:22.541Z,101890.34
2022-10-17T17:07:24.773Z,101890.69
2022-10-17T17:10:27.030Z,101894.81
2022-10-17T17:13:30.086Z,101890.88
2022-10-17T17:16:33.838Z,101893.09
2022-10-17T17:19:36.006Z,101899.59
2022-10-17T17:22:38.503Z,101904.50
2022-10-17T17:25:40.726Z,101901.38
2022-10-17T17:28:43.872Z,101907.09
2022-10-17T17:31:47.059Z,101906.59
2022-10-17T17:34:49.389Z,101905.81
2022-10-17T17:37:51.633Z,101905.34
2022-10-17T17:40:53.797Z,101908.38
2022-10-17T17:43:56.834Z,101904.41
2022-10-17T17:46:59.004Z,101900.94
2022-10-17T17:50:02.380Z,101901.28
2022-10-17T17:53:05.489Z,101898.13
2022-10-17T17:56:10.921Z,101904.59
2022-10-17T17:59:13.463Z,101905.72
2022-10-17T18:02:15.899Z,101902.56
2022-10-17T18:05:18.164Z,101904.03
2022-10-17T18:08:20.692Z,101903.22
2022-10-17T18:11:23.161Z,101905.44
2022-10-17T18:14:25.882Z,101907.66
2022-10-17T18:17:28.176Z,101907.19
2022-10-17T18:20:30.507Z,101905.63
2022-10-17T18:23:32.719Z,101903.25
2022-10-17T18:26:35.296Z,101901.34
2022-10-17T18:29:37.469Z,101904.38
2022-10-17T18:32:40.692Z,101903.13
2022-10-17T18:35:43.009Z,101894.25
2022-10-17T18:38:45.304Z,101899.63
2022-10-17T18:41:47.540Z,101906.44
2022-10-17T18:44:49.970Z,101897.91
2022-10-17T18:47:54.696Z,101904.41
2022-10-17T18:50:56.861Z,101904.72
2022-10-17T18:53:59.107Z,101905.03
2022-10-17T18:57:01.302Z,101893.81
2022-10-17T19:00:05.324Z,101898.44
2022-10-17T19:03:08.317Z,101896.84
2022-10-17T19:06:13.388Z,101898.72
2022-10-17T19:09:16.009Z,101898.72
2022-10-17T19:12:18.353Z,101906.34
2022-10-17T19:15:23.734Z,101896.66
2022-10-17T19:18:28.212Z,101899.66
2022-10-17T19:21:30.861Z,101898.41
2022-10-17T19:24:33.324Z,101896.50
2022-10-17T19:27:35.756Z,101904.13
2022-10-17T19:30:41.364Z,101899.84
2022-10-17T19:33:43.587Z,101900.94
2022-10-17T19:36:46.274Z,101895.44
2022-10-17T19:39:49.218Z,101893.06
2022-10-17T19:42:52.100Z,101898.75
2022-10-17T19:45:59.140Z,101888.50
2022-10-17T19:49:02.101Z,101891.66
2022-10-17T19:52:05.610Z,101888.50
2022-10-17T19:55:08.172Z,101893.09
2022-10-17T19:58:10.804Z,101894.69
2022-10-17T20:01:18.874Z,101904.16
2022-10-17T20:04:21.928Z,101900.69
2022-10-17T20:07:24.146Z,101909.06
2022-10-17T20:10:26.320Z,101909.38
2022-10-17T20:13:28.541Z,101907.03
2022-10-17T20:16:32.440Z,101904.16
2022-10-17T20:19:34.666Z,101908.75
2022-10-17T20:22:36.867Z,101909.88
2022-10-17T20:25:39.054Z,101904.81
2022-10-17T20:28:41.855Z,101908.63
2022-10-17T20:31:45.391Z,101906.25
2022-10-17T20:34:47.552Z,101904.66
2022-10-17T20:37:49.783Z,101907.69
2022-10-17T20:40:51.965Z,101907.97
2022-10-17T20:43:55.425Z,101902.16
2022-10-17T20:47:02.098Z,101904.03
2022-10-17T20:50:05.114Z,101908.59
2022-10-17T20:53:35.025Z,101908.16
2022-10-17T20:56:31.359Z,101905.47
2022-10-17T20:59:36.039Z,101900.41
2022-10-17T21:02:38.216Z,101902.63
2022-10-17T21:05:40.583Z,101903.72
2022-10-17T21:08:43.617Z,101897.91
2022-10-17T21:11:45.870Z,101900.91
2022-10-17T21:14:48.149Z,101904.69
2022-10-17T21:17:50.298Z,101907.69
2022-10-17T21:20:52.642Z,101903.44
2022-10-17T21:23:58.215Z,101908.81
2022-10-17T21:27:00.527Z,101905.66
2022-10-17T21:30:04.538Z,101903.28
2022-10-17T21:33:06.750Z,101910.22
2022-10-17T21:36:09.836Z,101904.38
2022-10-17T21:39:13.539Z,101901.69
2022-10-17T21:42:15.746Z,101907.41
2022-10-17T21:45:25.379Z,101899.63
2022-10-17T21:48:27.891Z,101904.22
2022-10-17T21:51:30.062Z,101903.44
2022-10-17T21:54:32.259Z,101897.28
2022-10-17T21:57:34.403Z,101901.38
2022-10-17T22:00:36.637Z,101897.91
2022-10-17T22:03:44.223Z,101893.97
2022-10-17T22:06:51.236Z,101879.56
2022-10-17T22:09:53.553Z,101890.81
2022-10-17T22:12:55.709Z,101886.53
2022-10-17T22:16:02.035Z,101886.53
2022-10-17T22:19:06.665Z,101881.47
2022-10-17T22:22:09.082Z,101885.75
2022-10-17T22:25:11.389Z,101879.41
2022-10-17T22:28:13.545Z,101875.91
2022-10-17T22:31:15.755Z,101886.19
2022-10-17T22:34:18.601Z,101878.47
2022-10-17T22:37:20.823Z,101889.19
2022-10-17T22:40:22.966Z,101884.94
2022-10-17T22:43:25.220Z,101886.84
2022-10-17T22:46:27.797Z,101880.69
2022-10-17T22:49:29.961Z,101882.91
2022-10-17T22:52:32.326Z,101882.41
2022-10-17T22:55:34.696Z,101883.53
2022-10-17T22:58:37.969Z,101881.94
2022-10-17T23:01:40.165Z,101874.22
2022-10-17T23:04:42.427Z,101872.63
2022-10-17T23:07:44.580Z,101869.13
2022-10-17T23:10:47.830Z,101873.25
2022-10-17T23:13:50.041Z,101871.69
2022-10-17T23:16:53.736Z,101866.63
2022-10-17T23:19:57.720Z,101873.88
2022-10-17T23:23:00.111Z,101866.13
2022-10-17T23:26:11.367Z,101860.28
2022-10-17T23:29:13.591Z,101867.25
2022-10-17T23:32:15.750Z,101854.13
2022-10-17T23:35:17.968Z,101846.28
2022-10-17T23:38:20.122Z,101849.09
2022-10-17T23:41:22.317Z,101850.97
2022-10-17T23:44:24.542Z,101851.31
2022-10-17T23:47:26.733Z,101850.84
2022-10-17T23:50:28.890Z,101848.16
2022-10-17T23:53:31.319Z,101846.09
2022-10-17T23:56:33.506Z,101850.66
2022-10-17T23:59:35.648Z,101852.25
